createdAt,value
2018-03-15T00:02:11.788Z,11.50
2018-03-15T00:04:42.004Z,11.43
2018-03-15T00:07:10.950Z,11.73
2018-03-15T00:09:42.651Z,11.85
2018-03-15T00:12:11.489Z,11.97
2018-03-15T00:14:40.838Z,11.39
2018-03-15T00:17:10.029Z,11.84
2018-03-15T00:19:41.056Z,12.03
2018-03-15T00:22:10.314Z,12.09
2018-03-15T00:24:40.209Z,11.99
2018-03-15T00:27:10.310Z,11.82
2018-03-15T00:29:40.158Z,11.85
2018-03-15T00:32:10.988Z,12.19
2018-03-15T00:34:41.403Z,12.52
2018-03-15T00:37:18.106Z,12.66
2018-03-15T00:39:46.528Z,12.89
2018-03-15T00:42:17.457Z,13.13
2018-03-15T00:47:35.315Z,12.74
2018-03-15T00:50:04.127Z,12.58
2018-03-15T00:52:34.337Z,12.14
2018-03-15T00:55:04.132Z,12.04
2018-03-15T00:57:37.629Z,11.96
2018-03-15T01:00:07.855Z,12.21
2018-03-15T01:02:36.004Z,12.51
2018-03-15T01:05:04.979Z,12.47
2018-03-15T01:07:32.886Z,12.00
2018-03-15T01:10:01.841Z,12.10
2018-03-15T01:12:37.246Z,11.88
2018-03-15T01:15:09.307Z,12.02
2018-03-15T01:17:40.359Z,12.24
2018-03-15T01:20:10.448Z,12.55
2018-03-15T01:22:38.753Z,12.08
2018-03-15T01:25:09.428Z,11.64
2018-03-15T01:27:39.726Z,11.26
2018-03-15T01:30:14.038Z,11.81
2018-03-15T01:32:46.688Z,12.07
2018-03-15T01:35:17.289Z,12.05
2018-03-15T01:37:46.747Z,12.11
2018-03-15T01:40:18.542Z,12.29
2018-03-15T01:45:55.577Z,12.71
2018-03-15T01:48:28.180Z,12.38
2018-03-15T01:50:58.868Z,11.81
2018-03-15T01:53:27.910Z,11.79
2018-03-15T01:55:58.483Z,12.04
2018-03-15T01:58:34.783Z,12.46
2018-03-15T02:01:03.088Z,12.57
2018-03-15T02:03:32.014Z,12.70
2018-03-15T02:06:01.247Z,12.48
2018-03-15T02:08:29.806Z,12.35
2018-03-15T02:10:59.038Z,12.28
2018-03-15T02:13:31.708Z,12.32
2018-03-15T02:16:04.314Z,12.51
2018-03-15T02:18:33.962Z,12.64
2018-03-15T02:21:03.598Z,12.66
2018-03-15T02:23:31.774Z,12.70
2018-03-15T02:26:01.933Z,12.31
2018-03-15T02:28:35.781Z,12.55
2018-03-15T02:31:04.568Z,12.61
2018-03-15T02:33:33.001Z,12.50
2018-03-15T02:36:02.108Z,12.33
2018-03-15T02:38:32.819Z,12.21
2018-03-15T02:41:04.156Z,12.54
2018-03-15T02:43:32.643Z,12.16
2018-03-15T02:46:09.469Z,12.43
2018-03-15T02:48:39.541Z,12.61
2018-03-15T02:51:10.655Z,12.66
2018-03-15T02:53:42.790Z,12.67
2018-03-15T02:56:13.500Z,12.60
2018-03-15T02:58:44.763Z,12.54
2018-03-15T03:01:12.487Z,12.79
2018-03-15T03:03:40.647Z,12.37
2018-03-15T03:06:09.384Z,12.54
2018-03-15T03:08:39.952Z,12.63
2018-03-15T03:11:11.519Z,12.74
2018-03-15T03:13:39.609Z,12.87
2018-03-15T03:16:07.672Z,12.87
2018-03-15T03:18:36.873Z,12.90
2018-03-15T03:21:06.094Z,12.75
2018-03-15T03:23:34.332Z,12.66
2018-03-15T03:26:04.889Z,12.57
2018-03-15T03:28:33.254Z,12.65
2018-03-15T03:31:01.192Z,12.66
2018-03-15T03:33:30.531Z,12.68
2018-03-15T03:36:00.370Z,12.47
2018-03-15T03:38:30.511Z,12.23
2018-03-15T03:41:00.436Z,12.23
2018-03-15T03:43:30.413Z,12.45
2018-03-15T03:46:01.398Z,12.21
2018-03-15T03:48:33.669Z,12.29
2018-03-15T03:51:02.862Z,12.52
2018-03-15T03:53:33.222Z,12.43
2018-03-15T03:56:02.301Z,12.36
2018-03-15T03:58:31.729Z,12.46
2018-03-15T04:01:06.106Z,12.58
2018-03-15T04:03:34.562Z,12.39
2018-03-15T04:06:07.629Z,12.07
2018-03-15T04:08:40.563Z,12.30
2018-03-15T04:11:11.025Z,12.28
2018-03-15T04:13:45.145Z,11.84
2018-03-15T04:16:19.082Z,11.52
2018-03-15T04:18:47.302Z,11.58
2018-03-15T04:21:22.336Z,11.78
2018-03-15T04:23:51.804Z,12.03
2018-03-15T04:26:21.619Z,11.79
2018-03-15T04:28:53.785Z,11.54
2018-03-15T04:31:23.301Z,11.60
2018-03-15T04:33:52.475Z,11.54
2018-03-15T04:36:21.768Z,11.34
2018-03-15T04:38:53.605Z,11.19
2018-03-15T04:41:22.280Z,11.09
2018-03-15T04:43:51.495Z,11.09
2018-03-15T04:46:22.758Z,11.13
2018-03-15T04:48:55.029Z,11.06
2018-03-15T04:51:25.134Z,11.18
2018-03-15T04:53:53.405Z,11.63
2018-03-15T04:56:22.530Z,11.79
2018-03-15T04:58:51.493Z,11.62
2018-03-15T05:01:25.180Z,11.54
2018-03-15T05:03:55.554Z,11.35
2018-03-15T05:06:28.260Z,11.35
2018-03-15T05:08:56.601Z,11.43
2018-03-15T05:11:27.654Z,11.65
2018-03-15T05:13:57.939Z,11.45
2018-03-15T05:16:26.845Z,11.18
2018-03-15T05:18:55.578Z,11.06
2018-03-15T05:21:27.874Z,11.28
2018-03-15T05:23:58.378Z,11.36
2018-03-15T05:26:28.948Z,11.35
2018-03-15T05:29:00.788Z,11.21
2018-03-15T05:31:32.068Z,11.01
2018-03-15T05:34:06.107Z,11.08
2018-03-15T05:36:35.494Z,11.32
2018-03-15T05:39:07.979Z,11.12
2018-03-15T05:41:37.606Z,11.01
2018-03-15T05:44:05.839Z,11.19
2018-03-15T05:46:36.223Z,11.50
2018-03-15T05:49:04.924Z,11.26
2018-03-15T05:51:35.868Z,11.13
2018-03-15T05:54:07.227Z,11.25
2018-03-15T05:57:06.179Z,11.64
2018-03-15T05:59:36.335Z,11.62
2018-03-15T06:02:04.555Z,11.36
2018-03-15T06:04:33.429Z,11.04
2018-03-15T06:07:01.943Z,10.73
2018-03-15T06:09:31.451Z,10.55
2018-03-15T06:12:00.377Z,10.93
2018-03-15T06:14:27.584Z,11.14
2018-03-15T06:16:55.444Z,11.23
2018-03-15T06:19:24.183Z,11.63
2018-03-15T06:21:57.864Z,11.87
2018-03-15T06:24:28.852Z,11.36
2018-03-15T06:26:57.261Z,11.34
2018-03-15T06:29:26.525Z,11.68
2018-03-15T06:31:57.879Z,11.55
2018-03-15T06:34:26.411Z,11.24
2018-03-15T06:36:55.051Z,11.05
2018-03-15T06:39:25.817Z,11.37
2018-03-15T06:41:54.905Z,11.53
2018-03-15T06:44:25.585Z,11.49
2018-03-15T06:46:54.173Z,11.74
2018-03-15T06:49:28.578Z,11.72
2018-03-15T06:52:07.365Z,11.83
2018-03-15T06:54:49.813Z,11.74
2018-03-15T06:57:20.654Z,11.74
2018-03-15T06:59:51.351Z,11.95
2018-03-15T07:02:22.443Z,12.30
2018-03-15T07:04:54.684Z,12.39
2018-03-15T07:07:26.066Z,12.79
2018-03-15T07:09:55.298Z,13.07
2018-03-15T07:12:25.261Z,12.99
2018-03-15T07:14:58.988Z,12.74
2018-03-15T07:20:34.447Z,12.25
2018-03-15T07:23:04.517Z,11.76
2018-03-15T07:25:42.320Z,12.13
2018-03-15T07:28:12.055Z,12.43
2018-03-15T07:30:42.443Z,12.54
2018-03-15T07:33:11.640Z,12.72
2018-03-15T07:35:40.128Z,12.88
2018-03-15T07:38:12.434Z,13.05
2018-03-15T07:40:41.674Z,12.69
2018-03-15T07:43:14.260Z,12.24
2018-03-15T07:45:45.801Z,12.14
2018-03-15T07:48:15.771Z,12.27
2018-03-15T07:50:45.990Z,11.66
2018-03-15T07:53:16.405Z,11.19
2018-03-15T07:55:44.767Z,11.06
2018-03-15T07:58:16.198Z,11.37
2018-03-15T08:00:47.731Z,11.37
2018-03-15T08:03:17.464Z,11.08
2018-03-15T08:05:46.325Z,10.92
2018-03-15T08:08:14.365Z,10.85
2018-03-15T08:10:44.295Z,10.75
2018-03-15T08:13:12.332Z,10.91
2018-03-15T08:15:41.297Z,11.48
2018-03-15T08:18:11.515Z,12.16
2018-03-15T08:20:41.759Z,11.90
2018-03-15T08:23:10.902Z,11.95
2018-03-15T08:25:41.205Z,12.30
2018-03-15T08:28:13.181Z,12.12
2018-03-15T08:30:42.143Z,12.34
2018-03-15T08:33:15.103Z,12.53
2018-03-15T08:35:43.988Z,12.94
2018-03-15T08:38:14.460Z,13.29
2018-03-15T08:40:45.501Z,13.32
2018-03-15T08:43:19.009Z,13.55
2018-03-15T08:45:48.556Z,13.56
2018-03-15T08:48:16.279Z,13.67
2018-03-15T08:50:47.380Z,13.59
2018-03-15T08:53:18.013Z,13.51
2018-03-15T08:55:47.619Z,13.35
2018-03-15T08:58:16.392Z,13.05
2018-03-15T09:00:47.563Z,12.98
2018-03-15T09:03:19.383Z,13.12
2018-03-15T09:05:49.147Z,13.20
2018-03-15T09:08:19.556Z,13.48
2018-03-15T09:10:50.379Z,13.53
2018-03-15T09:13:21.357Z,13.83
2018-03-15T09:15:50.894Z,13.84
2018-03-15T09:18:21.651Z,13.64
2018-03-15T09:20:51.252Z,13.93
2018-03-15T09:23:19.523Z,13.86
2018-03-15T09:25:47.513Z,13.84
2018-03-15T09:28:16.387Z,13.80
2018-03-15T09:30:46.289Z,13.83
2018-03-15T09:33:16.281Z,14.08
2018-03-15T09:35:47.314Z,14.03
2018-03-15T09:38:17.094Z,13.91
2018-03-15T09:40:48.252Z,13.42
2018-03-15T09:43:17.202Z,13.54
2018-03-15T09:45:45.729Z,13.79
2018-03-15T09:48:16.008Z,14.10
2018-03-15T09:50:45.959Z,14.32
2018-03-15T09:53:16.883Z,14.14
2018-03-15T09:55:45.589Z,14.24
2018-03-15T09:58:14.754Z,14.41
2018-03-15T10:00:52.848Z,14.79
2018-03-15T10:03:22.022Z,14.56
2018-03-15T10:05:50.361Z,14.68
2018-03-15T10:08:21.000Z,14.71
2018-03-15T10:10:51.737Z,14.97
2018-03-15T10:13:22.304Z,14.36
2018-03-15T10:15:50.532Z,13.81
2018-03-15T10:18:24.731Z,13.59
2018-03-15T10:20:54.674Z,13.89
2018-03-15T10:23:23.904Z,13.68
2018-03-15T10:25:53.133Z,14.55
2018-03-15T10:28:22.922Z,15.08
2018-03-15T10:30:51.463Z,15.13
2018-03-15T10:33:25.663Z,15.03
2018-03-15T10:35:54.993Z,14.88
2018-03-15T10:38:24.344Z,15.52
2018-03-15T10:40:56.515Z,15.76
2018-03-15T10:43:29.782Z,15.33
2018-03-15T10:46:04.742Z,14.70
2018-03-15T10:48:36.644Z,14.14
2018-03-15T10:51:05.726Z,13.96
2018-03-15T10:53:34.387Z,14.62
2018-03-15T10:56:04.538Z,15.05
2018-03-15T10:58:36.040Z,14.14
2018-03-15T11:01:06.210Z,14.00
2018-03-15T11:03:41.481Z,14.32
2018-03-15T11:06:11.593Z,15.30
2018-03-15T11:08:48.207Z,15.76
2018-03-15T11:11:17.105Z,15.22
2018-03-15T11:13:46.333Z,15.23
2018-03-15T11:16:15.072Z,15.82
2018-03-15T11:18:47.384Z,15.66
2018-03-15T11:21:20.266Z,15.72
2018-03-15T11:23:52.133Z,15.29
2018-03-15T11:26:20.734Z,14.61
2018-03-15T11:28:50.511Z,14.75
2018-03-15T11:31:20.288Z,15.17
2018-03-15T11:33:49.173Z,15.87
2018-03-15T11:36:16.653Z,15.87
2018-03-15T11:38:47.004Z,15.46
2018-03-15T11:41:17.956Z,14.43
2018-03-15T11:43:47.473Z,14.87
2018-03-15T11:46:16.479Z,15.46
2018-03-15T11:48:46.780Z,16.03
2018-03-15T11:51:17.440Z,16.31
2018-03-15T11:53:46.258Z,16.37
2018-03-15T11:56:17.792Z,16.18
2018-03-15T11:58:48.666Z,15.65
2018-03-15T12:01:20.809Z,15.76
2018-03-15T12:03:50.181Z,15.88
2018-03-15T12:06:18.278Z,16.41
2018-03-15T12:08:47.759Z,16.12
2018-03-15T12:11:18.602Z,16.30
2018-03-15T12:13:52.081Z,16.38
2018-03-15T12:16:20.994Z,16.54
2018-03-15T12:18:48.988Z,16.89
2018-03-15T12:21:19.512Z,16.59
2018-03-15T12:23:49.010Z,16.26
2018-03-15T12:26:18.388Z,16.19
2018-03-15T12:28:52.042Z,16.52
2018-03-15T12:31:19.718Z,16.24
2018-03-15T12:33:49.039Z,15.94
2018-03-15T12:36:21.978Z,15.96
2018-03-15T12:38:54.201Z,15.43
2018-03-15T12:41:22.805Z,15.78
2018-03-15T12:43:52.586Z,16.41
2018-03-15T12:46:21.200Z,16.68
2018-03-15T12:48:53.462Z,17.04
2018-03-15T12:51:28.441Z,17.27
2018-03-15T12:53:56.987Z,17.39
2018-03-15T12:56:24.161Z,16.85
2018-03-15T12:58:51.517Z,16.13
2018-03-15T13:01:21.733Z,16.19
2018-03-15T13:03:56.036Z,15.77
2018-03-15T13:06:24.059Z,15.96
2018-03-15T13:08:51.855Z,16.68
2018-03-15T13:11:20.428Z,17.18
2018-03-15T13:13:50.103Z,17.58
2018-03-15T13:16:23.376Z,17.88
2018-03-15T13:18:57.976Z,17.99
2018-03-15T13:21:25.927Z,17.63
2018-03-15T13:23:57.972Z,16.68
2018-03-15T13:26:27.135Z,17.19
2018-03-15T13:28:54.868Z,17.55
2018-03-15T13:31:23.891Z,17.76
2018-03-15T13:33:52.970Z,17.75
2018-03-15T13:36:26.260Z,17.77
2018-03-15T13:38:55.435Z,17.69
2018-03-15T13:41:26.099Z,18.24
2018-03-15T13:43:58.462Z,17.95
2018-03-15T13:46:26.325Z,17.22
2018-03-15T13:48:52.795Z,17.51
2018-03-15T13:51:19.277Z,17.82
2018-03-15T13:53:45.820Z,17.24
2018-03-15T13:56:12.237Z,17.93
2018-03-15T13:58:38.684Z,18.01
2018-03-15T14:01:05.056Z,17.17
2018-03-15T14:03:31.518Z,17.49
2018-03-15T14:05:58.005Z,18.17
2018-03-15T14:08:31.449Z,18.32
2018-03-15T14:10:57.891Z,18.33
2018-03-15T14:13:24.369Z,18.18
2018-03-15T14:15:50.871Z,17.85
2018-03-15T14:18:17.414Z,18.23
2018-03-15T14:20:43.855Z,18.11
2018-03-15T14:23:10.444Z,17.92
2018-03-15T14:25:37.706Z,16.96
2018-03-15T14:28:04.178Z,16.67
2018-03-15T14:30:30.681Z,16.68
2018-03-15T14:32:57.818Z,16.29
2018-03-15T14:35:24.398Z,17.22
2018-03-15T14:37:50.832Z,17.55
2018-03-15T14:40:17.259Z,17.29
2018-03-15T14:42:44.447Z,17.60
2018-03-15T14:45:10.840Z,18.08
2018-03-15T14:47:37.414Z,18.08
2018-03-15T14:50:04.005Z,18.24
2018-03-15T14:52:30.364Z,18.00
2018-03-15T14:54:57.052Z,17.68
2018-03-15T14:57:23.479Z,17.85
2018-03-15T14:59:49.997Z,17.45
2018-03-15T15:02:16.548Z,17.62
2018-03-15T15:04:42.939Z,17.78
2018-03-15T15:07:09.442Z,17.38
2018-03-15T15:09:36.723Z,17.22
2018-03-15T15:12:04.783Z,16.98
2018-03-15T15:14:38.237Z,17.02
2018-03-15T15:17:06.036Z,17.07
2018-03-15T15:19:36.279Z,17.05
2018-03-15T15:22:05.517Z,16.95
2018-03-15T15:24:33.770Z,16.86
2018-03-15T15:27:04.043Z,16.67
2018-03-15T15:29:33.415Z,16.86
2018-03-15T15:32:02.968Z,16.90
2018-03-15T15:34:33.452Z,17.25
2018-03-15T15:37:04.716Z,17.36
2018-03-15T15:39:31.985Z,17.43
2018-03-15T15:42:01.155Z,17.53
2018-03-15T15:44:29.127Z,17.24
2018-03-15T15:46:59.245Z,16.99
2018-03-15T15:49:31.332Z,16.42
2018-03-15T15:52:00.618Z,16.70
2018-03-15T15:54:32.116Z,16.34
2018-03-15T15:57:00.175Z,16.36
2018-03-15T15:59:30.351Z,16.55
2018-03-15T16:02:02.746Z,16.56
2018-03-15T16:04:30.767Z,16.57
2018-03-15T16:07:00.122Z,16.70
2018-03-15T16:09:27.903Z,16.72
2018-03-15T16:11:59.035Z,17.09
2018-03-15T16:14:26.580Z,17.19
2018-03-15T16:16:54.659Z,17.06
2018-03-15T16:19:22.275Z,17.33
2018-03-15T16:21:50.354Z,17.29
2018-03-15T16:24:19.114Z,17.16
2018-03-15T16:26:51.276Z,17.02
2018-03-15T16:29:20.410Z,16.96
2018-03-15T16:31:49.469Z,16.95
2018-03-15T16:34:16.615Z,16.97
2018-03-15T16:36:46.699Z,17.17
2018-03-15T16:39:13.446Z,17.11
2018-03-15T16:41:39.881Z,16.82
2018-03-15T16:44:06.469Z,16.97
2018-03-15T16:46:33.015Z,17.17
2018-03-15T16:48:59.380Z,17.10
2018-03-15T16:51:27.068Z,16.79
2018-03-15T16:53:54.257Z,16.78
2018-03-15T16:56:22.549Z,16.88
2018-03-15T16:58:52.735Z,16.88
2018-03-15T17:01:21.287Z,16.77
2018-03-15T17:03:50.910Z,16.82
2018-03-15T17:06:20.721Z,16.73
2018-03-15T17:08:51.066Z,16.65
2018-03-15T17:11:20.759Z,16.59
2018-03-15T17:13:53.075Z,16.78
2018-03-15T17:16:20.256Z,16.79
2018-03-15T17:18:46.781Z,16.75
2018-03-15T17:21:13.212Z,16.59
2018-03-15T17:23:40.360Z,16.63
2018-03-15T17:26:07.106Z,16.45
2018-03-15T17:28:33.549Z,16.29
2018-03-15T17:30:59.963Z,16.28
2018-03-15T17:33:26.624Z,16.12
2018-03-15T17:35:54.992Z,16.00
2018-03-15T17:38:21.877Z,15.99
2018-03-15T17:40:49.526Z,15.95
2018-03-15T17:43:17.040Z,16.16
2018-03-15T17:45:44.453Z,16.08
2018-03-15T17:48:10.905Z,15.90
2018-03-15T17:50:37.348Z,15.79
2018-03-15T17:53:04.628Z,15.71
2018-03-15T17:55:31.144Z,15.76
2018-03-15T17:57:57.605Z,15.87
2018-03-15T18:00:25.490Z,15.65
2018-03-15T18:02:51.918Z,15.38
2018-03-15T18:05:19.852Z,15.37
2018-03-15T18:07:47.021Z,15.44
2018-03-15T18:10:13.584Z,15.64
2018-03-15T18:12:39.983Z,15.91
2018-03-15T18:15:06.431Z,15.87
2018-03-15T18:17:32.875Z,15.50
2018-03-15T18:19:59.365Z,15.61
2018-03-15T18:22:26.812Z,15.54
2018-03-15T18:24:53.686Z,15.53
2018-03-15T18:27:20.179Z,15.50
2018-03-15T18:29:46.615Z,15.53
2018-03-15T18:32:13.033Z,15.85
2018-03-15T18:34:39.440Z,15.64
2018-03-15T18:37:07.843Z,15.13
2018-03-15T18:39:37.913Z,14.51
2018-03-15T18:42:06.150Z,14.63
2018-03-15T18:44:32.560Z,14.97
2018-03-15T18:46:59.468Z,15.11
2018-03-15T18:49:26.075Z,15.47
2018-03-15T18:51:53.907Z,15.29
2018-03-15T18:54:20.617Z,15.13
2018-03-15T19:01:18.736Z,14.49
2018-03-15T19:03:45.831Z,14.43
2018-03-15T19:06:12.220Z,14.49
2018-03-15T19:08:38.838Z,14.55
2018-03-15T19:11:05.979Z,14.63
2018-03-15T19:13:32.368Z,14.72
2018-03-15T19:15:58.843Z,14.61
2018-03-15T19:18:25.182Z,13.90
2018-03-15T19:20:52.281Z,14.25
2018-03-15T19:23:32.361Z,14.40
2018-03-15T19:26:00.442Z,14.51
2018-03-15T19:28:29.577Z,14.28
2018-03-15T19:30:59.455Z,14.18
2018-03-15T19:33:26.924Z,14.23
2018-03-15T19:35:53.332Z,14.27
2018-03-15T19:38:19.714Z,14.36
2018-03-15T19:40:46.216Z,14.48
2018-03-15T19:43:13.357Z,14.75
2018-03-15T19:45:40.031Z,14.71
2018-03-15T19:48:06.393Z,14.42
2018-03-15T19:50:33.116Z,14.40
2018-03-15T19:52:59.639Z,14.34
2018-03-15T19:55:26.023Z,14.47
2018-03-15T19:57:52.450Z,14.44
2018-03-15T20:00:18.932Z,14.31
2018-03-15T20:02:46.057Z,14.15
2018-03-15T20:05:12.493Z,14.09
2018-03-15T20:07:39.006Z,14.30
2018-03-15T20:10:05.417Z,14.33
2018-03-15T20:12:31.802Z,14.12
2018-03-15T20:14:58.411Z,13.92
2018-03-15T20:17:24.785Z,13.83
2018-03-15T20:19:51.226Z,13.80
2018-03-15T20:22:23.738Z,13.61
2018-03-15T20:24:50.135Z,13.33
2018-03-15T20:27:23.483Z,13.49
2018-03-15T20:29:49.887Z,13.42
2018-03-15T20:35:16.934Z,13.62
2018-03-15T20:37:46.258Z,13.74
2018-03-15T20:40:21.629Z,13.62
2018-03-15T20:42:50.935Z,13.83
2018-03-15T20:45:26.033Z,14.35
2018-03-15T20:48:01.936Z,14.25
2018-03-15T20:50:33.073Z,14.78
2018-03-15T20:53:02.534Z,14.76
2018-03-15T20:55:31.985Z,14.39
2018-03-15T20:58:01.427Z,14.22
2018-03-15T21:00:30.747Z,13.94
2018-03-15T21:03:01.382Z,13.86
2018-03-15T21:05:30.729Z,13.92
2018-03-15T21:08:01.322Z,14.13
2018-03-15T21:10:30.690Z,14.36
2018-03-15T21:13:00.688Z,14.38
2018-03-15T21:15:31.532Z,14.41
2018-03-15T21:18:00.892Z,14.14
2018-03-15T21:20:32.006Z,14.19
2018-03-15T21:23:01.440Z,14.16
2018-03-15T21:25:30.798Z,14.20
2018-03-15T21:28:01.932Z,14.27
2018-03-15T21:30:31.226Z,14.20
2018-03-15T21:33:01.848Z,14.14
2018-03-15T21:35:31.163Z,14.04
2018-03-15T21:38:03.639Z,14.15
2018-03-15T21:40:33.039Z,14.34
2018-03-15T21:43:02.488Z,14.19
2018-03-15T21:45:32.037Z,14.52
2018-03-15T21:48:01.372Z,14.25
2018-03-15T21:50:31.226Z,14.16
2018-03-15T21:53:01.420Z,13.95
2018-03-15T21:55:31.751Z,13.89
2018-03-15T21:58:01.912Z,13.93
2018-03-15T22:00:32.833Z,14.04
2018-03-15T22:03:02.461Z,14.19
2018-03-15T22:05:32.147Z,14.14
2018-03-15T22:08:02.228Z,14.09
2018-03-15T22:10:32.948Z,14.16
2018-03-15T22:13:02.777Z,14.05
2018-03-15T22:15:32.429Z,14.32
2018-03-15T22:18:02.489Z,14.32
2018-03-15T22:20:32.611Z,14.14
2018-03-15T22:23:03.065Z,14.06
2018-03-15T22:25:33.054Z,13.95
2018-03-15T22:28:04.304Z,13.75
2018-03-15T22:30:34.439Z,13.97
2018-03-15T22:33:03.959Z,13.84
2018-03-15T22:35:33.303Z,13.93
2018-03-15T22:38:04.139Z,13.98
2018-03-15T22:40:34.213Z,13.88
2018-03-15T22:43:04.788Z,13.85
2018-03-15T22:45:35.253Z,13.70
2018-03-15T22:48:06.283Z,13.76
2018-03-15T22:50:36.527Z,13.69
2018-03-15T22:53:05.844Z,13.62
2018-03-15T22:55:35.209Z,13.83
2018-03-15T22:58:05.101Z,13.93
2018-03-15T23:00:35.256Z,13.87
2018-03-15T23:03:05.959Z,13.83
2018-03-15T23:05:35.379Z,14.05
2018-03-15T23:08:06.108Z,14.08
2018-03-15T23:10:35.664Z,13.85
2018-03-15T23:13:05.867Z,13.91
2018-03-15T23:15:36.719Z,13.87
2018-03-15T23:18:07.082Z,13.69
2018-03-15T23:20:37.977Z,13.40
2018-03-15T23:23:07.720Z,13.65
2018-03-15T23:25:39.928Z,13.70
2018-03-15T23:28:11.067Z,13.74
2018-03-15T23:30:41.009Z,13.73
2018-03-15T23:33:11.883Z,13.95
2018-03-15T23:35:41.828Z,14.00
2018-03-15T23:38:14.163Z,13.84
2018-03-15T23:40:45.853Z,13.96
2018-03-15T23:43:17.934Z,14.14
2018-03-15T23:45:49.930Z,13.70
2018-03-15T23:48:20.631Z,13.51
2018-03-15T23:50:55.366Z,13.71
2018-03-15T23:53:26.220Z,13.69
2018-03-15T23:55:57.409Z,13.61
2018-03-15T23:58:26.716Z,13.55
